createdAt,value
2023-04-09T00:02:13.000Z,10.74
2023-04-09T00:07:22.806Z,11.09
2023-04-09T00:12:30.975Z,11.09
2023-04-09T00:17:40.909Z,10.8
2023-04-09T00:22:49.208Z,11.16
2023-04-09T00:27:58.336Z,11.16
2023-04-09T00:33:08.074Z,11.18
2023-04-09T00:38:17.837Z,11.18
2023-04-09T00:43:27.595Z,10.61
2023-04-09T00:48:36.734Z,10.61
2023-04-09T00:53:45.243Z,10.41
2023-04-09T00:58:54.885Z,10.41
2023-04-09T01:04:04.083Z,10.52
2023-04-09T01:09:12.594Z,10.52
2023-04-09T01:14:21.057Z,9.89
2023-04-09T01:19:30.170Z,9.89
2023-04-09T01:24:38.652Z,9.66
2023-04-09T01:29:48.441Z,9.66
2023-04-09T01:34:58.178Z,9.71
2023-04-09T01:40:05.994Z,9.71
2023-04-09T01:45:15.772Z,9.58
2023-04-09T01:50:26.160Z,9.58
2023-04-09T01:55:35.284Z,9.72
2023-04-09T02:00:43.774Z,9.72
2023-04-09T02:05:52.864Z,9.56
2023-04-09T02:11:00.721Z,9.56
2023-04-09T02:16:10.145Z,9.54
2023-04-09T02:21:19.002Z,9.54
2023-04-09T02:26:28.776Z,9.73
2023-04-09T02:31:38.468Z,9.73
2023-04-09T02:36:49.520Z,9.51
2023-04-09T02:41:59.309Z,9.51
2023-04-09T02:47:09.023Z,9.31
2023-04-09T02:52:18.791Z,9.31
2023-04-09T02:57:28.577Z,9.55
2023-04-09T03:02:37.884Z,9.55
2023-04-09T03:07:47.510Z,10.25
2023-04-09T03:12:57.867Z,10.25
2023-04-09T03:18:09.112Z,10.05
2023-04-09T03:28:27.883Z,9.91
2023-04-09T03:33:36.882Z,9.69
2023-04-09T03:38:47.387Z,9.69
2023-04-09T03:43:55.889Z,9.75
2023-04-09T03:49:04.998Z,9.75
2023-04-09T03:54:12.748Z,9.42
2023-04-09T03:59:21.239Z,9.42
2023-04-09T04:04:30.967Z,9.42
2023-04-09T04:09:40.303Z,9.42
2023-04-09T04:14:49.907Z,9.67
2023-04-09T04:19:59.593Z,9.67
2023-04-09T04:25:08.104Z,9.54
2023-04-09T04:30:17.868Z,9.54
2023-04-09T04:35:26.540Z,9.34
2023-04-09T04:40:35.437Z,9.34
2023-04-09T04:45:46.086Z,9.45
2023-04-09T04:50:56.233Z,9.45
2023-04-09T04:56:04.743Z,9.51
2023-04-09T05:01:14.799Z,9.51
2023-04-09T05:06:24.886Z,9.64
2023-04-09T05:11:34.058Z,9.64
2023-04-09T05:16:42.153Z,9.46
2023-04-09T05:21:51.606Z,9.46
2023-04-09T05:27:00.740Z,9.18
2023-04-09T05:32:10.721Z,9.18
2023-04-09T05:37:18.979Z,8.92
2023-04-09T05:42:28.128Z,8.92
2023-04-09T05:47:36.988Z,9.24
2023-04-09T05:52:45.068Z,9.24
2023-04-09T05:57:54.206Z,8.99
2023-04-09T06:03:04.035Z,8.99
2023-04-09T06:08:12.408Z,9.36
2023-04-09T06:13:21.571Z,9.36
2023-04-09T06:18:30.024Z,8.98
2023-04-09T06:23:40.438Z,9.1
2023-04-09T06:28:50.190Z,9.1
2023-04-09T06:33:59.944Z,9.09
2023-04-09T06:39:08.415Z,9.09
2023-04-09T06:44:17.513Z,8.9
2023-04-09T06:49:27.934Z,8.9
2023-04-09T06:54:37.707Z,8.74
2023-04-09T06:59:47.437Z,8.74
2023-04-09T07:04:56.658Z,8.98
2023-04-09T07:10:06.614Z,8.98
2023-04-09T07:15:15.822Z,8.85
2023-04-09T07:20:24.564Z,8.85
2023-04-09T07:25:34.649Z,8.99
2023-04-09T07:30:42.244Z,8.99
2023-04-09T07:35:50.889Z,8.71
2023-04-09T07:41:01.040Z,8.71
2023-04-09T07:46:09.709Z,8.7
2023-04-09T07:51:17.992Z,8.7
2023-04-09T07:56:28.458Z,8.8
2023-04-09T08:01:37.378Z,8.8
2023-04-09T08:06:46.663Z,8.53
2023-04-09T08:11:55.182Z,8.53
2023-04-09T08:17:05.250Z,8.57
2023-04-09T08:22:14.031Z,8.57
2023-04-09T08:27:23.144Z,8.27
2023-04-09T08:32:32.541Z,8.27
2023-04-09T08:37:41.379Z,8.37
2023-04-09T08:42:51.132Z,8.37
2023-04-09T08:48:00.450Z,8.28
2023-04-09T08:53:08.725Z,8.28
2023-04-09T08:58:18.510Z,8.31
2023-04-09T09:03:28.864Z,8.31
2023-04-09T09:08:36.060Z,8.2
2023-04-09T09:13:44.598Z,8.2
2023-04-09T09:18:55.118Z,8.38
2023-04-09T09:24:02.790Z,8.38
2023-04-09T09:29:11.918Z,8.17
2023-04-09T09:34:20.445Z,8
2023-04-09T09:39:28.887Z,8
2023-04-09T09:44:37.994Z,8.16
2023-04-09T09:49:48.404Z,8.16
2023-04-09T09:54:56.890Z,8.1
2023-04-09T10:00:06.665Z,8.1
2023-04-09T10:05:15.778Z,8.1
2023-04-09T10:10:25.565Z,8.1
2023-04-09T10:15:34.964Z,8.06
2023-04-09T10:20:44.415Z,8.06
2023-04-09T10:25:53.561Z,8.16
2023-04-09T10:31:03.514Z,8.16
2023-04-09T10:36:13.555Z,8.21
2023-04-09T10:41:22.862Z,8.21
2023-04-09T10:46:32.133Z,8.28
2023-04-09T10:51:41.694Z,8.28
2023-04-09T10:56:50.795Z,8.16
2023-04-09T11:02:00.015Z,8.16
2023-04-09T11:07:09.698Z,8.18
2023-04-09T11:12:19.449Z,8.18
2023-04-09T11:17:28.092Z,8.18
2023-04-09T11:22:38.349Z,8.18
2023-04-09T11:27:48.096Z,8.19
2023-04-09T11:32:58.221Z,8.19
2023-04-09T11:38:06.324Z,8.09
2023-04-09T11:43:16.137Z,8.09
2023-04-09T11:48:25.357Z,8.11
2023-04-09T11:53:34.946Z,8.11
2023-04-09T11:58:43.445Z,8.18
2023-04-09T12:03:53.306Z,8.18
2023-04-09T12:09:01.684Z,8.12
2023-04-09T12:14:10.204Z,8.12
2023-04-09T12:21:25.411Z,8.14
2023-04-09T12:26:35.795Z,8.2
2023-04-09T12:31:45.949Z,8.2
2023-04-09T12:36:55.907Z,8.16
2023-04-09T12:42:06.336Z,8.16
2023-04-09T12:47:16.746Z,8.18
2023-04-09T12:52:26.488Z,8.18
2023-04-09T12:57:37.533Z,8.07
2023-04-09T13:02:48.447Z,8.07
2023-04-09T13:07:57.667Z,8.2
2023-04-09T13:13:06.203Z,8.2
2023-04-09T13:18:15.319Z,8.11
2023-04-09T13:23:23.128Z,8.11
2023-04-09T13:28:32.233Z,8.07
2023-04-09T13:33:41.359Z,8.07
2023-04-09T13:38:52.372Z,8.11
2023-04-09T13:44:00.275Z,8.11
2023-04-09T13:49:10.030Z,8.09
2023-04-09T13:54:19.756Z,8.09
2023-04-09T13:59:28.913Z,8.2
2023-04-09T14:04:38.950Z,8.2
2023-04-09T14:09:47.814Z,8.01
2023-04-09T14:14:56.891Z,8.01
2023-04-09T14:20:06.031Z,8.08
2023-04-09T14:25:14.510Z,8.08
2023-04-09T14:30:24.229Z,7.95
2023-04-09T14:35:34.323Z,7.99
2023-04-09T14:40:43.126Z,7.99
2023-04-09T14:45:51.608Z,7.94
2023-04-09T14:51:01.425Z,7.94
2023-04-09T14:56:09.854Z,8.07
2023-04-09T15:01:19.776Z,8.07
2023-04-09T15:06:28.704Z,7.98
2023-04-09T15:11:38.479Z,7.98
2023-04-09T15:16:47.291Z,8.07
2023-04-09T15:21:56.729Z,8.07
2023-04-09T15:27:07.168Z,7.99
2023-04-09T15:32:16.269Z,7.99
2023-04-09T15:37:25.361Z,8.02
2023-04-09T15:42:33.203Z,8.02
2023-04-09T15:47:42.558Z,8
2023-04-09T15:52:52.088Z,8
2023-04-09T15:58:01.861Z,7.91
2023-04-09T16:03:10.345Z,7.91
2023-04-09T16:08:20.745Z,7.98
2023-04-09T16:13:29.208Z,7.98
2023-04-09T16:18:37.697Z,7.93
2023-04-09T16:23:47.715Z,7.93
2023-04-09T16:28:57.190Z,7.86
2023-04-09T16:34:05.781Z,7.86
2023-04-09T16:39:14.162Z,7.99
2023-04-09T16:44:23.906Z,7.99
2023-04-09T16:49:33.667Z,7.94
2023-04-09T16:54:42.145Z,7.94
2023-04-09T16:59:50.626Z,7.89
2023-04-09T17:05:00.459Z,7.89
2023-04-09T17:10:08.842Z,7.89
2023-04-09T17:15:19.290Z,7.89
2023-04-09T17:20:27.746Z,7.81
2023-04-09T17:25:36.893Z,7.81
2023-04-09T17:30:45.649Z,7.75
2023-04-09T17:35:55.992Z,7.75
2023-04-09T17:41:07.939Z,7.75
2023-04-09T17:46:15.072Z,7.78
2023-04-09T17:51:24.414Z,7.78
2023-04-09T17:56:34.152Z,7.73
2023-04-09T18:01:44.753Z,7.73
2023-04-09T18:06:52.411Z,7.73
2023-04-09T18:12:01.591Z,7.73
2023-04-09T18:17:11.311Z,7.75
2023-04-09T18:22:19.791Z,7.75
2023-04-09T18:27:29.533Z,7.76
2023-04-09T18:32:38.361Z,7.76
2023-04-09T18:37:47.748Z,7.79
2023-04-09T18:42:56.931Z,7.79
2023-04-09T18:48:06.909Z,7.72
2023-04-09T18:53:15.766Z,7.72
2023-04-09T18:58:24.263Z,7.73
2023-04-09T19:03:34.617Z,7.73
2023-04-09T19:08:42.486Z,7.77
2023-04-09T19:13:52.263Z,7.77
2023-04-09T19:19:02.118Z,7.89
2023-04-09T19:24:11.143Z,7.89
2023-04-09T19:29:20.250Z,7.89
2023-04-09T19:34:29.384Z,7.89
2023-04-09T19:39:39.128Z,7.92
2023-04-09T19:44:47.612Z,7.92
2023-04-09T19:49:58.000Z,7.82
2023-04-09T19:55:06.516Z,7.82
2023-04-09T20:00:16.256Z,7.91
2023-04-09T20:05:24.772Z,7.91
2023-04-09T20:10:34.513Z,8.01
2023-04-09T20:15:44.282Z,8.01
2023-04-09T20:20:54.022Z,7.92
2023-04-09T20:26:05.050Z,7.92
2023-04-09T20:31:14.801Z,7.92
2023-04-09T20:36:24.583Z,7.92
2023-04-09T20:41:33.034Z,7.9
2023-04-09T20:46:42.847Z,8.02
2023-04-09T20:51:52.093Z,8.02
2023-04-09T20:57:00.455Z,8.15
2023-04-09T21:02:10.792Z,8.15
2023-04-09T21:07:19.909Z,8.13
2023-04-09T21:12:29.694Z,8.13
2023-04-09T21:17:38.461Z,8.28
2023-04-09T21:22:45.991Z,8.28
2023-04-09T21:27:54.645Z,8.42
2023-04-09T21:33:03.962Z,8.42
2023-04-09T21:38:13.404Z,8.59
2023-04-09T21:43:21.257Z,8.59
2023-04-09T21:48:31.024Z,8.52
2023-04-09T21:53:40.797Z,8.52
2023-04-09T21:58:49.204Z,8.85
2023-04-09T22:03:58.329Z,8.85
2023-04-09T22:09:06.870Z,8.6
2023-04-09T22:14:15.305Z,8.6
2023-04-09T22:19:23.758Z,8.52
2023-04-09T22:24:32.868Z,8.52
2023-04-09T22:29:42.674Z,8.36
2023-04-09T22:34:51.760Z,8.36
2023-04-09T22:40:01.641Z,8.36
2023-04-09T22:45:11.384Z,8.36
2023-04-09T22:50:19.787Z,8.55
2023-04-09T22:55:28.905Z,8.55
2023-04-09T23:00:38.036Z,8.68
2023-04-09T23:05:47.803Z,8.68
2023-04-09T23:10:56.337Z,8.82
2023-04-09T23:16:04.959Z,8.82
2023-04-09T23:21:13.289Z,8.98
2023-04-09T23:26:23.079Z,8.98
2023-04-09T23:31:33.137Z,9.01
2023-04-09T23:36:42.569Z,9.01
2023-04-09T23:41:52.252Z,8.96
2023-04-09T23:47:01.921Z,8.96
2023-04-09T23:52:10.544Z,8.89
2023-04-09T23:57:20.241Z,9.26
